Time;durP1;ratioP1;P1;durP2;ratioP2;P2;SDS_P1;SDS_P2;PMS_P1;PMS_P2;Temp;Humidity;BMP_temperature;BMP_pressure;BME280_temperature;BME280_humidity;BME280_pressure;Samples;Min_cycle;Max_cycle;Signal;HPM_P1;HPM_P2
2021/04/13 00:02:12;;;;;;;;;;;;;;;6.81;86.76;99037.66;4996081;28;19988;-92
2021/04/13 00:04:38;;;;;;;;;;;;;;;6.87;86.95;99043.53;4996370;28;19923;-92
2021/04/13 00:07:03;;;;;;;;;;;;;;;6.83;86.53;99035.28;4996428;28;20008;-92
2021/04/13 00:09:31;;;;;;;;;;;;;;;6.80;86.56;99040.81;4996533;28;19913;-91
2021/04/13 00:12:17;;;;;;;;;;;;;;;6.79;86.52;99033.75;4996450;28;19913;-92
2021/04/13 00:14:48;;;;;;;;;;;;;;;6.72;87.03;99031.84;4998658;28;19964;-90
2021/04/13 00:17:17;;;;;;;;;;;;;;;6.81;86.25;99025.91;5016258;28;19913;-91
2021/04/13 00:19:47;;;;;;;;;;;;;;;6.93;85.41;99028.19;5016126;28;20295;-90
2021/04/13 00:22:13;;;;;;;;;;;;;;;7.02;85.13;99025.75;5015956;28;19913;-92
2021/04/13 00:24:39;;;;;;;;;;;;;;;7.05;85.35;99029.66;5016084;28;19917;-93
2021/04/13 00:27:04;;;;;;;;;;;;;;;7.02;85.52;99025.75;5015932;28;20396;-92
2021/04/13 00:29:32;;;;;;;;;;;;;;;7.10;83.90;99023.72;5015962;28;19979;-92
2021/04/13 00:31:59;;;;;;;;;;;;;;;7.11;84.44;99028.03;5016108;28;20044;-92
2021/04/13 00:35:09;;;;;;;;;;;;;;;6.96;85.27;99027.34;5033180;28;19963;-93
2021/04/13 00:40:30;;;;;;;;;;;;;;;6.99;84.90;99025.78;4992497;28;19967;-92
2021/04/13 00:45:59;;;;;;;;;;;;;;;7.22;82.57;99012.25;4992231;28;19920;-92
2021/04/13 00:48:27;;;;;;;;;;;;;;;7.30;82.02;99011.75;4991920;28;19913;-93
2021/04/13 00:50:55;;;;;;;;;;;;;;;7.36;81.48;99018.38;4993456;28;19910;-93
2021/04/13 00:53:22;;;;;;;;;;;;;;;7.39;81.63;99010.50;4996177;28;19968;-92
2021/04/13 00:55:54;;;;;;;;;;;;;;;7.41;81.65;99008.13;4995845;28;20360;-95
2021/04/13 00:58:40;;;;;;;;;;;;;;;7.41;81.94;98999.91;4996959;28;19971;-93
2021/04/13 01:32:26;;;;;;;;;;;;;;;6.91;84.67;98992.09;5036164;28;20433;-87
2021/04/13 01:35:02;;;;;;;;;;;;;;;6.72;85.92;98989.88;5018581;28;20391;-89
2021/04/13 01:37:46;;;;;;;;;;;;;;;6.60;86.09;98982.13;5014797;28;19920;-88
2021/04/13 01:42:37;;;;;;;;;;;;;;;6.63;85.00;98986.81;5014610;28;19917;-90
2021/04/13 01:45:12;;;;;;;;;;;;;;;6.70;85.40;98986.75;5014315;28;19987;-90
2021/04/13 02:04:50;;;;;;;;;;;;;;;7.25;85.25;99000.41;5034978;28;19917;-89
2021/04/13 02:07:24;;;;;;;;;;;;;;;7.40;84.55;98998.31;5018287;28;19917;-87
2021/04/13 02:09:54;;;;;;;;;;;;;;;7.51;83.70;99007.25;5018818;28;19913;-89
2021/04/13 02:12:24;;;;;;;;;;;;;;;7.63;83.18;99015.75;5018328;28;19963;-90
2021/04/13 02:18:03;;;;;;;;;;;;;;;7.81;82.41;99021.06;4956665;29;19921;-90
2021/04/13 02:20:31;;;;;;;;;;;;;;;7.83;82.04;99029.69;5018329;28;20376;-89
2021/04/13 02:22:57;;;;;;;;;;;;;;;7.92;80.78;99026.44;5017940;28;20308;-93
2021/04/13 02:25:25;;;;;;;;;;;;;;;7.91;81.09;99036.66;5018132;28;20361;-90
2021/04/13 02:27:52;;;;;;;;;;;;;;;7.94;80.58;99024.06;5017696;28;19987;-90
2021/04/13 02:30:26;;;;;;;;;;;;;;;7.96;81.25;99027.94;5018500;28;19913;-88
2021/04/13 02:32:52;;;;;;;;;;;;;;;8.09;79.47;99011.69;5018042;28;19913;-88
2021/04/13 02:35:22;;;;;;;;;;;;;;;8.21;79.24;99013.13;5018087;28;19913;-91
2021/04/13 02:37:52;;;;;;;;;;;;;;;8.38;77.50;99014.91;5017590;28;19920;-89
2021/04/13 02:40:35;;;;;;;;;;;;;;;8.47;77.56;99013.19;5017519;28;19920;-91
2021/04/13 02:43:06;;;;;;;;;;;;;;;8.54;77.00;99012.31;5017563;28;19913;-90
2021/04/13 02:45:32;;;;;;;;;;;;;;;8.63;76.39;99006.28;5017453;28;20135;-89
2021/04/13 02:48:02;;;;;;;;;;;;;;;8.59;76.46;99003.59;5017850;28;20369;-88
2021/04/13 02:50:28;;;;;;;;;;;;;;;8.56;76.50;99004.41;5017633;28;19960;-89
2021/04/13 02:52:54;;;;;;;;;;;;;;;8.55;77.11;98997.34;5017334;28;20380;-89
2021/04/13 02:55:26;;;;;;;;;;;;;;;8.60;76.65;98999.63;5017355;28;19916;-88
2021/04/13 03:10:18;;;;;;;;;;;;;;;8.44;77.65;99011.25;5034663;28;19924;-88
2021/04/13 03:15:51;;;;;;;;;;;;;;;8.11;79.28;99017.56;5034293;28;19971;-88
2021/04/13 03:18:19;;;;;;;;;;;;;;;7.86;80.12;99017.84;5017247;28;20003;-92
2021/04/13 03:20:46;;;;;;;;;;;;;;;7.79;79.94;99023.44;5017317;28;19913;-85
2021/04/13 03:23:14;;;;;;;;;;;;;;;7.85;79.61;99016.28;5017043;28;19924;-85
2021/04/13 03:29:02;;;;;;;;;;;;;;;7.84;80.61;99020.22;5034043;28;19923;-86
2021/04/13 03:31:32;;;;;;;;;;;;;;;7.87;80.36;99027.69;5017172;28;20352;-86
2021/04/13 03:34:01;;;;;;;;;;;;;;;7.82;80.09;99036.38;5017078;28;19952;-87
2021/04/13 03:36:27;;;;;;;;;;;;;;;7.76;81.36;99029.78;5016620;28;19967;-89
2021/04/13 03:38:57;;;;;;;;;;;;;;;7.64;81.43;99033.81;5016457;28;19917;-88
2021/04/13 03:42:00;;;;;;;;;;;;;;;7.63;80.48;99036.97;5017333;28;20380;-89
2021/04/13 03:44:26;;;;;;;;;;;;;;;7.67;79.84;99037.72;5016238;28;19917;-88
2021/04/13 03:46:52;;;;;;;;;;;;;;;7.65;80.25;99034.59;5016943;28;20265;-88
2021/04/13 03:49:29;;;;;;;;;;;;;;;7.69;80.04;99035.34;5016463;28;19960;-87
2021/04/13 03:52:11;;;;;;;;;;;;;;;7.71;81.16;99039.25;5016845;28;19920;-88
2021/04/13 03:54:38;;;;;;;;;;;;;;;7.76;81.58;99046.28;5016224;28;19913;-88
2021/04/13 03:57:04;;;;;;;;;;;;;;;7.80;81.85;99030.50;5016475;28;19913;-87
2021/04/13 03:59:34;;;;;;;;;;;;;;;7.84;81.94;99041.44;5016714;28;19971;-89
2021/04/13 04:08:16;;;;;;;;;;;;;;;7.82;83.49;99061.13;5022469;28;19927;-89
2021/04/13 04:11:13;;;;;;;;;;;;;;;7.64;84.58;99064.06;4997318;28;19924;-94
2021/04/13 04:16:47;;;;;;;;;;;;;;;7.74;84.13;99057.69;5013202;28;19913;-91
2021/04/13 04:25:24;;;;;;;;;;;;;;;8.13;82.78;99048.22;4973493;28;19914;-89
2021/04/13 04:27:53;;;;;;;;;;;;;;;8.46;81.95;99047.41;4960586;28;19914;-89
2021/04/13 04:30:21;;;;;;;;;;;;;;;8.76;79.93;99054.88;4960379;28;19914;-89
2021/04/13 04:32:46;;;;;;;;;;;;;;;8.92;80.19;99060.53;4961033;28;20005;-87
2021/04/13 04:41:41;;;;;;;;;;;;;;;9.01;78.94;99060.03;4976240;28;19914;-84
2021/04/13 04:44:06;;;;;;;;;;;;;;;9.14;78.69;99058.25;4960315;28;19949;-83
2021/04/13 04:46:33;;;;;;;;;;;;;;;9.14;78.93;99060.22;4960616;28;19957;-85
2021/04/13 04:48:59;;;;;;;;;;;;;;;9.11;78.36;99058.28;4960430;28;19914;-84
2021/04/13 04:51:25;;;;;;;;;;;;;;;9.11;79.54;99058.28;4959953;28;19993;-83
2021/04/13 04:53:50;;;;;;;;;;;;;;;8.99;81.14;99054.91;4996487;28;19944;-84
2021/04/13 04:59:19;;;;;;;;;;;;;;;9.00;79.77;99052.94;5017604;28;20400;-84
2021/04/13 05:01:46;;;;;;;;;;;;;;;9.12;79.12;99055.13;5003287;28;19999;-84
2021/04/13 05:04:11;;;;;;;;;;;;;;;9.17;79.55;99059.38;4999988;28;19976;-83
2021/04/13 05:06:36;;;;;;;;;;;;;;;9.23;79.31;99060.47;4999365;28;19956;-84
2021/04/13 05:09:02;;;;;;;;;;;;;;;9.38;79.60;99059.81;4999836;28;19920;-84
2021/04/13 05:11:27;;;;;;;;;;;;;;;9.49;79.22;99067.91;4999827;28;19913;-83
2021/04/13 05:13:53;;;;;;;;;;;;;;;9.51;79.64;99061.97;4999451;28;20372;-82
2021/04/13 05:16:19;;;;;;;;;;;;;;;9.77;78.12;99061.09;4999377;28;19917;-84
2021/04/13 05:18:44;;;;;;;;;;;;;;;10.10;76.96;99056.53;4999980;28;19913;-81
2021/04/13 05:21:09;;;;;;;;;;;;;;;10.30;76.08;99051.06;4999330;28;20353;-85
2021/04/13 05:23:35;;;;;;;;;;;;;;;10.39;75.14;99043.75;4999295;28;19917;-80
2021/04/13 05:26:01;;;;;;;;;;;;;;;10.67;73.78;99044.34;4999249;28;19921;-80
2021/04/13 05:28:26;;;;;;;;;;;;;;;10.69;74.76;99039.94;4999637;28;20387;-81
2021/04/13 05:30:52;;;;;;;;;;;;;;;10.90;73.62;99033.16;4999144;28;20045;-79
2021/04/13 05:33:19;;;;;;;;;;;;;;;11.02;74.90;99038.78;4998948;28;19913;-83
2021/04/13 05:35:45;;;;;;;;;;;;;;;11.08;74.79;99041.03;4999061;28;19913;-84
2021/04/13 05:38:31;;;;;;;;;;;;;;;11.28;74.42;99048.03;5001293;28;20012;-83
2021/04/13 05:40:57;;;;;;;;;;;;;;;11.13;75.40;99043.28;4998354;28;19921;-84
2021/04/13 05:43:22;;;;;;;;;;;;;;;11.05;74.56;99036.34;4999179;28;19921;-84
2021/04/13 05:45:49;;;;;;;;;;;;;;;11.20;73.50;99048.63;4998891;28;19913;-83
2021/04/13 05:48:15;;;;;;;;;;;;;;;11.27;73.03;99035.41;4999049;28;20047;-83
2021/04/13 05:50:43;;;;;;;;;;;;;;;11.22;70.99;99035.91;4999423;28;19972;-84
2021/04/13 05:53:19;;;;;;;;;;;;;;;11.22;72.06;99032.38;4999113;28;20012;-83
2021/04/13 05:55:45;;;;;;;;;;;;;;;11.07;74.65;99043.03;4998722;28;19914;-82
2021/04/13 05:58:31;;;;;;;;;;;;;;;11.08;74.05;99039.03;4998536;28;19917;-80
2021/04/13 06:00:57;;;;;;;;;;;;;;;10.95;74.51;99035.41;4998100;28;20366;-79
2021/04/13 06:03:23;;;;;;;;;;;;;;;11.04;75.14;99041.09;4998028;28;19944;-79
2021/04/13 06:05:49;;;;;;;;;;;;;;;11.27;74.59;99035.41;4998764;28;19968;-80
2021/04/13 06:08:15;;;;;;;;;;;;;;;11.42;74.16;99036.63;4997715;28;19921;-79
2021/04/13 06:10:41;;;;;;;;;;;;;;;11.53;74.71;99036.34;4998375;28;19913;-80
2021/04/13 06:13:07;;;;;;;;;;;;;;;11.44;74.89;99033.41;4997553;28;19913;-81
2021/04/13 06:15:32;;;;;;;;;;;;;;;11.52;74.96;99034.00;4997764;28;20036;-80
2021/04/13 06:17:58;;;;;;;;;;;;;;;11.55;75.13;99030.38;4997730;28;19914;-79
2021/04/13 06:20:24;;;;;;;;;;;;;;;11.58;73.56;99032.25;4997569;28;19914;-79
2021/04/13 06:22:53;;;;;;;;;;;;;;;11.64;73.41;99028.53;4997992;28;19913;-79
2021/04/13 06:25:20;;;;;;;;;;;;;;;11.55;74.05;99028.38;4998156;28;19917;-77
2021/04/13 06:27:46;;;;;;;;;;;;;;;11.61;74.20;99028.63;4997704;28;19918;-78
2021/04/13 06:30:11;;;;;;;;;;;;;;;11.49;74.46;99021.03;4997640;28;19924;-77
2021/04/13 06:32:37;;;;;;;;;;;;;;;11.46;74.59;99013.59;4997339;28;19921;-78
2021/04/13 06:35:02;;;;;;;;;;;;;;;11.41;75.71;99015.69;4997366;28;19961;-79
2021/04/13 06:37:28;;;;;;;;;;;;;;;11.44;75.58;99011.28;4997312;28;19920;-79
2021/04/13 06:39:53;;;;;;;;;;;;;;;11.37;75.36;99009.47;4997976;28;19917;-79
2021/04/13 06:42:37;;;;;;;;;;;;;;;11.48;75.10;99011.19;4997606;28;20408;-79
2021/04/13 06:45:06;;;;;;;;;;;;;;;11.51;74.82;99004.78;4997564;28;19914;-80
2021/04/13 06:47:31;;;;;;;;;;;;;;;11.27;75.78;99004.97;4997370;28;20456;-78
2021/04/13 06:50:03;;;;;;;;;;;;;;;11.05;76.28;99000.41;4999470;28;19964;-79
2021/04/13 06:52:47;;;;;;;;;;;;;;;11.05;76.11;99001.19;4997963;28;20383;-79
2021/04/13 06:55:31;;;;;;;;;;;;;;;10.92;76.89;98997.56;4997321;28;19913;-79
2021/04/13 06:58:05;;;;;;;;;;;;;;;10.64;80.03;99003.75;4997447;28;19936;-79
2021/04/13 07:00:39;;;;;;;;;;;;;;;10.39;81.49;98996.78;4997416;28;19913;-80
2021/04/13 07:03:08;;;;;;;;;;;;;;;10.40;83.36;99003.88;4997581;28;19948;-78
2021/04/13 07:05:36;;;;;;;;;;;;;;;10.64;81.55;99001.75;4996996;28;19920;-78
2021/04/13 07:08:17;;;;;;;;;;;;;;;10.47;80.89;99000.97;4996870;28;19921;-77
2021/04/13 07:10:46;;;;;;;;;;;;;;;10.79;81.23;98997.44;4997490;28;19914;-78
2021/04/13 07:13:11;;;;;;;;;;;;;;;10.63;80.07;99002.19;4997556;28;19972;-78
2021/04/13 07:15:46;;;;;;;;;;;;;;;10.85;80.07;99001.25;4996805;28;20357;-78
2021/04/13 07:18:14;;;;;;;;;;;;;;;11.18;81.30;98995.75;4997323;28;19917;-79
2021/04/13 07:20:44;;;;;;;;;;;;;;;11.31;80.51;98991.84;4996303;28;19921;-78
2021/04/13 07:23:15;;;;;;;;;;;;;;;11.43;77.91;99004.97;4996267;28;20404;-78
2021/04/13 07:26:07;;;;;;;;;;;;;;;11.13;79.23;98996.28;4996262;28;19917;-78
2021/04/13 07:28:39;;;;;;;;;;;;;;;10.88;82.14;98992.13;4992236;28;19924;-78
2021/04/13 07:31:09;;;;;;;;;;;;;;;10.77;83.18;98990.81;4997340;28;19949;-77
2021/04/13 07:33:34;;;;;;;;;;;;;;;11.11;82.77;98988.41;4996480;28;19913;-79
2021/04/13 07:36:13;;;;;;;;;;;;;;;11.52;79.71;98984.19;4996166;28;19932;-78
2021/04/13 07:38:45;;;;;;;;;;;;;;;11.76;76.20;98982.75;4996913;28;20292;-78
2021/04/13 07:41:23;;;;;;;;;;;;;;;12.03;74.78;98988.75;4980550;28;19925;-78
2021/04/13 07:43:59;;;;;;;;;;;;;;;12.11;74.36;98984.56;4996153;28;19921;-78
2021/04/13 07:46:43;;;;;;;;;;;;;;;12.55;71.25;98985.59;4996434;28;19932;-79
2021/04/13 07:49:20;;;;;;;;;;;;;;;13.26;66.27;98983.34;4996053;28;19913;-78
2021/04/13 07:51:46;;;;;;;;;;;;;;;13.79;64.75;98989.84;4996454;28;19949;-80
2021/04/13 07:54:30;;;;;;;;;;;;;;;13.82;64.43;98988.16;4996079;28;20346;-78
2021/04/13 07:56:59;;;;;;;;;;;;;;;13.96;64.06;98990.44;4995624;28;20408;-79
2021/04/13 07:59:36;;;;;;;;;;;;;;;13.94;63.47;98983.75;4995912;28;20369;-78
2021/04/13 08:02:01;;;;;;;;;;;;;;;13.71;64.53;98982.22;4996030;28;19924;-78
2021/04/13 08:04:28;;;;;;;;;;;;;;;13.56;64.71;98990.28;4995873;28;20301;-80
2021/04/13 08:07:15;;;;;;;;;;;;;;;13.56;65.92;98987.50;4996019;28;19979;-79
2021/04/13 08:09:47;;;;;;;;;;;;;;;13.64;64.70;98988.00;4995933;28;19918;-78
2021/04/13 08:12:24;;;;;;;;;;;;;;;13.53;67.83;98985.59;4996004;28;20024;-78
2021/04/13 08:15:09;;;;;;;;;;;;;;;12.99;69.41;98983.81;4995798;28;20350;-78
2021/04/13 08:17:53;;;;;;;;;;;;;;;12.66;72.29;98971.41;4994883;28;20011;-80
2021/04/13 08:20:29;;;;;;;;;;;;;;;12.45;74.01;98961.78;4995924;28;19979;-80
2021/04/13 08:22:59;;;;;;;;;;;;;;;13.00;72.35;98967.94;4995877;28;19913;-79
2021/04/13 08:25:40;;;;;;;;;;;;;;;13.05;73.02;98964.63;4995786;28;19968;-78
2021/04/13 08:28:08;;;;;;;;;;;;;;;13.42;69.67;98963.78;4995524;28;20001;-78
2021/04/13 08:30:46;;;;;;;;;;;;;;;13.70;68.06;98970.31;4995508;28;19917;-77
2021/04/13 08:33:26;;;;;;;;;;;;;;;14.01;66.98;98973.19;4995493;28;19917;-80
2021/04/13 08:36:05;;;;;;;;;;;;;;;13.63;68.40;98961.47;4995394;28;20037;-79
2021/04/13 08:38:52;;;;;;;;;;;;;;;14.02;65.29;98960.84;4994447;28;20456;-79
2021/04/13 08:41:17;;;;;;;;;;;;;;;14.02;64.65;98966.41;4995506;28;19963;-80
2021/04/13 08:43:56;;;;;;;;;;;;;;;14.14;65.13;98960.00;4995431;28;19917;-77
2021/04/13 08:46:35;;;;;;;;;;;;;;;13.88;66.29;98955.78;4995737;28;20270;-77
2021/04/13 08:49:25;;;;;;;;;;;;;;;14.09;65.41;98955.03;4995283;28;19913;-78
2021/04/13 08:52:08;;;;;;;;;;;;;;;13.68;67.31;98949.81;4985191;28;19920;-78
2021/04/13 08:54:35;;;;;;;;;;;;;;;13.95;65.88;98944.44;4995204;28;19917;-77
2021/04/13 08:57:21;;;;;;;;;;;;;;;14.28;66.98;98950.34;4995935;28;19928;-78
2021/04/13 08:59:50;;;;;;;;;;;;;;;14.18;67.39;98943.94;4995546;28;19920;-79
2021/04/13 09:02:35;;;;;;;;;;;;;;;14.26;67.34;98933.34;4995434;28;19920;-80
2021/04/13 09:05:07;;;;;;;;;;;;;;;14.58;66.31;98932.91;4996162;28;19913;-78
2021/04/13 09:07:47;;;;;;;;;;;;;;;14.77;64.54;98938.53;4995853;28;20333;-78
2021/04/13 09:10:28;;;;;;;;;;;;;;;14.23;64.55;98935.00;4996340;28;19914;-77
2021/04/13 09:13:02;;;;;;;;;;;;;;;14.34;65.43;98922.72;4998544;28;19913;-77
2021/04/13 09:15:28;;;;;;;;;;;;;;;14.60;63.94;98924.84;4998929;28;20000;-78
2021/04/13 09:17:56;;;;;;;;;;;;;;;14.72;63.90;98925.19;4999427;28;20014;-78
2021/04/13 09:20:31;;;;;;;;;;;;;;;14.97;61.90;98925.75;4999058;28;19925;-78
2021/04/13 09:23:15;;;;;;;;;;;;;;;15.01;62.51;98920.78;4999441;28;19914;-78
2021/04/13 09:25:49;;;;;;;;;;;;;;;14.87;64.12;98912.28;4998591;28;19968;-78
2021/04/13 09:28:19;;;;;;;;;;;;;;;14.39;67.42;98911.81;4998751;28;20004;-78
2021/04/13 09:31:06;;;;;;;;;;;;;;;13.49;71.56;98903.69;5016425;28;19914;-77
2021/04/13 09:33:37;;;;;;;;;;;;;;;13.62;69.69;98902.38;4983128;28;19972;-79
2021/04/13 09:36:11;;;;;;;;;;;;;;;13.96;69.42;98903.53;4998856;28;19914;-78
2021/04/13 09:38:48;;;;;;;;;;;;;;;13.93;68.14;98904.44;4999308;28;19980;-80
2021/04/13 09:41:23;;;;;;;;;;;;;;;13.88;68.91;98899.47;4999089;28;20316;-79
2021/04/13 09:43:54;;;;;;;;;;;;;;;13.80;69.32;98894.16;4998468;28;19913;-78
2021/04/13 09:46:38;;;;;;;;;;;;;;;13.79;70.50;98889.09;4998599;28;19913;-78
2021/04/13 09:49:13;;;;;;;;;;;;;;;13.91;71.13;98888.25;4998471;28;19913;-79
2021/04/13 09:51:38;;;;;;;;;;;;;;;14.08;69.25;98886.78;4999043;28;19913;-78
2021/04/13 09:54:03;;;;;;;;;;;;;;;14.03;69.61;98881.81;4998371;28;20391;-78
2021/04/13 09:56:46;;;;;;;;;;;;;;;13.94;70.41;98872.66;4998632;28;19913;-78
2021/04/13 09:59:20;;;;;;;;;;;;;;;14.16;69.50;98867.84;4998874;28;19976;-81
2021/04/13 10:02:04;;;;;;;;;;;;;;;14.13;69.88;98868.75;4998152;28;19913;-79
2021/04/13 10:04:29;;;;;;;;;;;;;;;13.83;70.86;98868.28;4998200;28;19920;-78
2021/04/13 10:07:17;;;;;;;;;;;;;;;13.62;72.64;98873.88;4997807;28;20008;-79
2021/04/13 10:09:43;;;;;;;;;;;;;;;13.58;72.49;98867.66;4998671;28;19920;-79
2021/04/13 10:12:28;;;;;;;;;;;;;;;13.07;74.32;98864.31;4998350;28;20413;-79
2021/04/13 10:14:53;;;;;;;;;;;;;;;12.95;76.60;98869.47;4998078;28;19913;-79
2021/04/13 10:17:21;;;;;;;;;;;;;;;13.15;77.02;98862.84;4997246;28;19936;-79
2021/04/13 10:20:05;;;;;;;;;;;;;;;13.12;75.95;98858.19;4997034;28;19949;-79
2021/04/13 10:22:54;;;;;;;;;;;;;;;12.93;77.13;98848.94;5013144;28;20020;-80
2021/04/13 10:25:26;;;;;;;;;;;;;;;12.96;74.88;98862.66;4992289;28;20004;-80
2021/04/13 10:28:10;;;;;;;;;;;;;;;12.91;75.98;98866.00;4998010;28;20381;-79
2021/04/13 10:30:35;;;;;;;;;;;;;;;12.94;76.15;98859.59;5014237;28;19913;-79
2021/04/13 10:33:11;;;;;;;;;;;;;;;13.05;77.71;98864.75;4997789;28;19924;-79
2021/04/13 10:35:37;;;;;;;;;;;;;;;12.41;81.67;98855.03;4998274;28;20373;-79
2021/04/13 10:38:11;;;;;;;;;;;;;;;12.80;81.14;98854.50;4997553;28;20018;-78
2021/04/13 10:40:46;;;;;;;;;;;;;;;12.94;79.36;98854.03;4997590;28;19913;-81
2021/04/13 10:43:17;;;;;;;;;;;;;;;12.85;78.09;98855.94;4997213;28;19917;-79
2021/04/13 10:45:42;;;;;;;;;;;;;;;13.02;77.83;98855.31;4997547;28;19913;-78
2021/04/13 10:48:30;;;;;;;;;;;;;;;12.43;82.46;98853.34;4996513;28;20436;-78
2021/04/13 10:51:11;;;;;;;;;;;;;;;12.33;82.71;98848.16;5013378;28;19913;-78
2021/04/13 10:53:55;;;;;;;;;;;;;;;11.94;85.37;98852.91;4997467;28;19921;-79
2021/04/13 10:56:36;;;;;;;;;;;;;;;11.50;89.29;98849.06;5013609;28;19921;-78
2021/04/13 10:59:05;;;;;;;;;;;;;;;11.94;88.02;98847.38;4997070;28;19917;-78
2021/04/13 11:01:36;;;;;;;;;;;;;;;12.46;84.79;98854.47;4997306;28;19917;-78
2021/04/13 11:04:20;;;;;;;;;;;;;;;12.52;85.33;98859.00;4996850;28;19918;-78
2021/04/13 11:07:19;;;;;;;;;;;;;;;12.20;83.18;98862.00;5013560;28;19914;-79
2021/04/13 11:09:47;;;;;;;;;;;;;;;12.57;81.99;98857.66;4997194;28;19913;-77
2021/04/13 11:12:22;;;;;;;;;;;;;;;12.70;80.00;98860.41;4997242;28;19913;-78
2021/04/13 11:15:03;;;;;;;;;;;;;;;12.79;79.01;98857.72;4997150;28;19964;-79
2021/04/13 11:17:33;;;;;;;;;;;;;;;13.02;77.51;98863.63;4997367;28;19913;-79
2021/04/13 11:20:13;;;;;;;;;;;;;;;13.22;77.85;98859.84;4997035;28;20386;-79
2021/04/13 11:22:56;;;;;;;;;;;;;;;13.21;76.29;98855.50;4996903;28;19914;-79
2021/04/13 11:25:26;;;;;;;;;;;;;;;13.25;76.55;98856.16;4996707;28;19918;-79
2021/04/13 11:28:10;;;;;;;;;;;;;;;13.50;75.37;98856.06;4997306;28;19929;-79
2021/04/13 11:30:54;;;;;;;;;;;;;;;13.69;75.13;98851.38;5013417;28;19920;-79
2021/04/13 11:33:29;;;;;;;;;;;;;;;13.79;74.37;98844.66;5013233;28;19995;-80
2021/04/13 11:35:57;;;;;;;;;;;;;;;13.77;74.82;98841.56;4996837;28;20453;-78
2021/04/13 11:38:32;;;;;;;;;;;;;;;13.61;75.98;98853.66;4996774;28;19913;-80
2021/04/13 11:41:16;;;;;;;;;;;;;;;13.49;77.22;98843.41;4996622;28;20404;-79
2021/04/13 11:43:49;;;;;;;;;;;;;;;13.72;76.87;98834.59;4997007;28;19917;-79
2021/04/13 11:46:20;;;;;;;;;;;;;;;13.66;77.92;98841.97;4996463;28;19914;-80
2021/04/13 11:48:57;;;;;;;;;;;;;;;13.53;78.69;98841.25;4996067;28;19964;-79
2021/04/13 11:51:42;;;;;;;;;;;;;;;13.16;79.49;98839.44;4990426;28;20004;-78
2021/04/13 11:54:25;;;;;;;;;;;;;;;13.33;79.22;98849.13;4976814;28;19923;-79
2021/04/13 11:57:01;;;;;;;;;;;;;;;13.50;78.41;98839.41;4976963;28;19920;-79
2021/04/13 11:59:26;;;;;;;;;;;;;;;13.52;78.53;98831.38;4976760;28;19968;-79
2021/04/13 12:01:57;;;;;;;;;;;;;;;13.50;79.59;98819.97;4976741;28;19969;-79
2021/04/13 12:04:40;;;;;;;;;;;;;;;13.82;78.35;98822.28;4976698;28;19914;-79
2021/04/13 12:07:07;;;;;;;;;;;;;;;14.02;76.66;98821.16;4976247;28;19918;-80
2021/04/13 12:09:42;;;;;;;;;;;;;;;13.97;77.59;98821.75;4976913;28;20378;-78
2021/04/13 12:12:27;;;;;;;;;;;;;;;14.03;77.19;98814.38;4976605;28;19914;-79
2021/04/13 12:14:52;;;;;;;;;;;;;;;13.99;75.90;98810.94;4976236;28;20321;-79
2021/04/13 12:17:30;;;;;;;;;;;;;;;13.65;77.74;98773.78;4976573;28;20013;-79
2021/04/13 12:20:14;;;;;;;;;;;;;;;13.70;79.14;98798.16;4976158;28;19972;-80
2021/04/13 12:22:39;;;;;;;;;;;;;;;13.58;79.22;98801.81;4979437;28;20332;-80
2021/04/13 12:25:25;;;;;;;;;;;;;;;13.50;80.85;98799.75;4994477;28;19921;-81
2021/04/13 12:28:00;;;;;;;;;;;;;;;13.61;80.00;98798.13;4995853;28;19964;-81
2021/04/13 12:30:25;;;;;;;;;;;;;;;13.67;79.75;98798.31;4995917;28;19916;-81
2021/04/13 12:32:51;;;;;;;;;;;;;;;13.68;81.07;98792.28;4995328;28;19976;-85
2021/04/13 12:35:39;;;;;;;;;;;;;;;13.88;79.98;98786.38;4995830;28;19910;-80
2021/04/13 12:38:24;;;;;;;;;;;;;;;13.74;79.35;98790.47;5012408;28;20377;-80
2021/04/13 12:41:04;;;;;;;;;;;;;;;13.68;80.18;98788.75;4995953;28;19910;-79
2021/04/13 12:43:33;;;;;;;;;;;;;;;13.82;79.60;98780.63;4995970;28;20000;-80
2021/04/13 12:46:00;;;;;;;;;;;;;;;13.01;85.06;98784.47;4996116;28;20012;-80
2021/04/13 12:48:44;;;;;;;;;;;;;;;12.62;89.36;98777.50;4999785;28;19913;-80
2021/04/13 12:51:11;;;;;;;;;;;;;;;13.43;84.05;98771.03;4999821;28;19914;-80
2021/04/13 12:53:37;;;;;;;;;;;;;;;13.92;81.48;98778.69;4999750;28;19968;-79
2021/04/13 12:56:12;;;;;;;;;;;;;;;14.25;79.49;98776.16;4999903;28;19917;-80
2021/04/13 12:58:39;;;;;;;;;;;;;;;14.15;81.25;98767.03;5000397;28;19917;-80
2021/04/13 13:01:05;;;;;;;;;;;;;;;13.32;85.07;98767.88;4999692;28;19921;-80
2021/04/13 13:03:35;;;;;;;;;;;;;;;13.47;84.17;98759.03;4999944;28;19921;-80
2021/04/13 13:06:12;;;;;;;;;;;;;;;13.00;87.85;98759.94;4999465;28;20395;-79
2021/04/13 13:08:37;;;;;;;;;;;;;;;12.70;90.82;98752.31;4999531;28;19917;-80
2021/04/13 13:11:07;;;;;;;;;;;;;;;12.36;91.77;98747.50;4999536;28;19920;-79
2021/04/13 13:13:34;;;;;;;;;;;;;;;12.08;96.68;98747.25;4999327;28;20013;-80
2021/04/13 13:16:10;;;;;;;;;;;;;;;12.18;97.27;98754.44;4999416;28;20460;-80
2021/04/13 13:18:36;;;;;;;;;;;;;;;11.36;100.00;98750.66;4999315;28;19914;-79
2021/04/13 13:21:08;;;;;;;;;;;;;;;11.13;100.00;98734.34;4999226;28;19918;-79
2021/04/13 13:23:35;;;;;;;;;;;;;;;11.52;100.00;98740.69;4999729;28;19936;-79
2021/04/13 13:26:10;;;;;;;;;;;;;;;11.83;100.00;98739.75;4999136;28;19924;-81
2021/04/13 13:28:44;;;;;;;;;;;;;;;11.59;100.00;98741.25;4999201;28;19940;-80
2021/04/13 13:31:15;;;;;;;;;;;;;;;11.49;100.00;98734.06;4998979;28;19917;-79
2021/04/13 13:33:42;;;;;;;;;;;;;;;11.11;100.00;98730.47;4999030;28;19913;-79
2021/04/13 13:36:08;;;;;;;;;;;;;;;11.07;100.00;98722.28;4999054;28;19987;-79
2021/04/13 13:38:36;;;;;;;;;;;;;;;11.40;100.00;98729.19;4999000;28;19914;-79
2021/04/13 13:41:02;;;;;;;;;;;;;;;11.84;100.00;98726.66;4999164;28;19913;-81
2021/04/13 13:43:30;;;;;;;;;;;;;;;11.74;100.00;98725.03;4998916;28;19913;-80
2021/04/13 13:46:28;;;;;;;;;;;;;;;12.13;100.00;98724.53;4998765;28;19913;-80
2021/04/13 13:48:56;;;;;;;;;;;;;;;12.47;99.28;98709.94;4975187;28;20351;-80
2021/04/13 13:51:30;;;;;;;;;;;;;;;12.52;98.26;98714.91;4996649;28;20028;-81
2021/04/13 13:53:58;;;;;;;;;;;;;;;11.99;100.00;98719.47;4996742;28;19913;-81
2021/04/13 13:56:29;;;;;;;;;;;;;;;12.08;100.00;98713.25;4996678;28;20242;-81
2021/04/13 13:59:13;;;;;;;;;;;;;;;12.28;100.00;98713.75;4997579;28;20020;-80
2021/04/13 14:01:39;;;;;;;;;;;;;;;12.35;100.00;98713.53;5014819;28;19913;-81
2021/04/13 14:04:04;;;;;;;;;;;;;;;12.43;100.00;98717.56;4998491;28;19972;-81
2021/04/13 14:06:30;;;;;;;;;;;;;;;12.15;99.36;98716.56;4999256;28;20305;-80
2021/04/13 14:09:11;;;;;;;;;;;;;;;11.63;100.00;98714.28;4998379;28;20405;-80
2021/04/13 14:11:36;;;;;;;;;;;;;;;11.81;100.00;98705.44;4998334;28;20007;-80
2021/04/13 14:14:04;;;;;;;;;;;;;;;11.59;100.00;98707.28;4998317;28;20371;-80
2021/04/13 14:16:42;;;;;;;;;;;;;;;11.76;100.00;98714.25;4998299;28;19937;-80
2021/04/13 14:19:18;;;;;;;;;;;;;;;11.76;100.00;98709.50;4998751;28;19919;-80
2021/04/13 14:21:43;;;;;;;;;;;;;;;12.13;100.00;98701.59;4998228;28;19913;-80
2021/04/13 14:24:24;;;;;;;;;;;;;;;12.27;100.00;98701.13;4998044;28;20378;-79
2021/04/13 14:26:52;;;;;;;;;;;;;;;12.52;99.50;98703.03;4998027;28;20395;-80
2021/04/13 14:29:22;;;;;;;;;;;;;;;12.51;98.65;98698.72;4998158;28;19972;-79
2021/04/13 14:31:49;;;;;;;;;;;;;;;12.30;99.47;98691.91;4997811;28;19913;-80
2021/04/13 14:34:15;;;;;;;;;;;;;;;12.19;100.00;98697.81;4997959;28;19920;-80
2021/04/13 14:36:41;;;;;;;;;;;;;;;12.13;100.00;98707.91;4997892;28;19921;-79
2021/04/13 14:39:07;;;;;;;;;;;;;;;11.85;100.00;98706.09;4997899;28;19921;-79
2021/04/13 14:41:34;;;;;;;;;;;;;;;11.67;100.00;98701.09;4998157;28;19949;-79
2021/04/13 14:43:59;;;;;;;;;;;;;;;11.39;100.00;98699.97;4997647;28;19913;-79
2021/04/13 14:46:24;;;;;;;;;;;;;;;11.70;100.00;98707.72;4997650;28;19921;-80
2021/04/13 14:48:50;;;;;;;;;;;;;;;11.79;100.00;98705.88;4997712;28;19913;-80
2021/04/13 14:51:15;;;;;;;;;;;;;;;11.87;100.00;98700.88;4997830;28;19937;-80
2021/04/13 14:53:42;;;;;;;;;;;;;;;12.08;100.00;98694.63;4997585;28;19971;-80
2021/04/13 14:56:09;;;;;;;;;;;;;;;12.27;100.00;98700.34;4997412;28;20324;-80
2021/04/13 14:58:34;;;;;;;;;;;;;;;12.41;100.00;98688.78;4997452;28;19914;-80